sensor_id;sensor_type;location;lat;lon;timestamp;pressure;altitude;pressure_sealevel;temperature;humidity
44079;BME280;29744;49.078;12.878;2023-05-10T00:01:21;95789.34;;;15.39;40.10
44079;BME280;29744;49.078;12.878;2023-05-10T00:06:22;95793.97;;;15.39;40.17
44079;BME280;29744;49.078;12.878;2023-05-10T00:11:22;95802.84;;;15.39;39.67
44079;BME280;29744;49.078;12.878;2023-05-10T00:16:22;95795.88;;;15.38;40.09
44079;BME280;29744;49.078;12.878;2023-05-10T00:21:23;95783.16;;;15.39;39.85
44079;BME280;29744;49.078;12.878;2023-05-10T00:26:23;95786.66;;;15.39;40.13
44079;BME280;29744;49.078;12.878;2023-05-10T00:31:23;95790.47;;;15.38;39.77
44079;BME280;29744;49.078;12.878;2023-05-10T00:36:24;95773.47;;;15.38;40.19
44079;BME280;29744;49.078;12.878;2023-05-10T00:41:24;95785.88;;;15.39;39.68
44079;BME280;29744;49.078;12.878;2023-05-10T00:46:25;95783.16;;;15.39;39.90
44079;BME280;29744;49.078;12.878;2023-05-10T00:51:25;95779.69;;;15.38;39.79
44079;BME280;29744;49.078;12.878;2023-05-10T00:56:26;95780.81;;;15.37;40.21
44079;BME280;29744;49.078;12.878;2023-05-10T01:01:27;95779.69;;;15.38;40.07
44079;BME280;29744;49.078;12.878;2023-05-10T01:06:28;95773.47;;;15.38;39.65
44079;BME280;29744;49.078;12.878;2023-05-10T01:11:28;95771.91;;;15.37;39.87
44079;BME280;29744;49.078;12.878;2023-05-10T01:16:37;95774.63;;;15.37;39.64
44079;BME280;29744;49.078;12.878;2023-05-10T01:21:56;95776.53;;;15.36;39.85
44079;BME280;29744;49.078;12.878;2023-05-10T01:32:32;95778.78;;;15.34;39.99
44079;BME280;29744;49.078;12.878;2023-05-10T01:37:45;95786.91;;;15.34;39.90
44079;BME280;29744;49.078;12.878;2023-05-10T01:42:53;95786.09;;;15.34;39.84
44079;BME280;29744;49.078;12.878;2023-05-10T01:48:11;95784.53;;;15.33;39.82
44079;BME280;29744;49.078;12.878;2023-05-10T01:53:18;95784.19;;;15.34;39.93
44079;BME280;29744;49.078;12.878;2023-05-10T01:58:27;95778.78;;;15.34;39.63
44079;BME280;29744;49.078;12.878;2023-05-10T02:03:30;95776.88;;;15.35;39.74
44079;BME280;29744;49.078;12.878;2023-05-10T02:08:33;95785.75;;;15.35;40.17
44079;BME280;29744;49.078;12.878;2023-05-10T02:13:37;95782.28;;;15.35;39.76
44079;BME280;29744;49.078;12.878;2023-05-10T02:18:40;95783.06;;;15.35;40.07
44079;BME280;29744;49.078;12.878;2023-05-10T02:23:42;95781.50;;;15.34;40.26
44079;BME280;29744;49.078;12.878;2023-05-10T02:28:43;95780.72;;;15.34;40.03
44079;BME280;29744;49.078;12.878;2023-05-10T02:33:45;95778.00;;;15.34;40.07
44079;BME280;29744;49.078;12.878;2023-05-10T02:38:50;95775.31;;;15.34;39.89
44079;BME280;29744;49.078;12.878;2023-05-10T02:43:52;95776.09;;;15.34;39.89
44079;BME280;29744;49.078;12.878;2023-05-10T02:48:56;95771.81;;;15.33;39.55
44079;BME280;29744;49.078;12.878;2023-05-10T02:53:57;95776.44;;;15.33;39.73
44079;BME280;29744;49.078;12.878;2023-05-10T02:58:59;95769.13;;;15.33;39.88
44079;BME280;29744;49.078;12.878;2023-05-10T03:04:00;95768.31;;;15.33;40.21
44079;BME280;29744;49.078;12.878;2023-05-10T03:09:01;95768.31;;;15.33;39.84
44079;BME280;29744;49.078;12.878;2023-05-10T03:19:27;95765.19;;;15.31;39.99
44079;BME280;29744;49.078;12.878;2023-05-10T03:24:30;95776.78;;;15.31;39.74
44079;BME280;29744;49.078;12.878;2023-05-10T03:29:32;95779.47;;;15.31;39.87
44079;BME280;29744;49.078;12.878;2023-05-10T03:34:33;95776.00;;;15.31;39.67
44079;BME280;29744;49.078;12.878;2023-05-10T03:39:33;95778.69;;;15.31;39.64
44079;BME280;29744;49.078;12.878;2023-05-10T03:44:34;95793.00;;;15.31;40.12
44079;BME280;29744;49.078;12.878;2023-05-10T03:49:34;95789.50;;;15.31;39.88
44079;BME280;29744;49.078;12.878;2023-05-10T03:54:34;95781.41;;;15.31;39.92
44079;BME280;29744;49.078;12.878;2023-05-10T03:59:35;95793.00;;;15.31;39.63
44079;BME280;29744;49.078;12.878;2023-05-10T04:04:35;95789.50;;;15.31;39.75
44079;BME280;29744;49.078;12.878;2023-05-10T04:09:35;95793.00;;;15.31;39.99
44079;BME280;29744;49.078;12.878;2023-05-10T04:14:36;95786.00;;;15.30;40.13
44079;BME280;29744;49.078;12.878;2023-05-10T04:19:37;95786.81;;;15.31;39.64
44079;BME280;29744;49.078;12.878;2023-05-10T04:24:37;95792.19;;;15.31;39.94
44079;BME280;29744;49.078;12.878;2023-05-10T04:29:37;95786.81;;;15.31;39.88
44079;BME280;29744;49.078;12.878;2023-05-10T04:34:38;95786.00;;;15.30;40.10
44079;BME280;29744;49.078;12.878;2023-05-10T04:39:38;95783.31;;;15.30;39.88
44079;BME280;29744;49.078;12.878;2023-05-10T04:44:38;95786.81;;;15.31;39.97
44079;BME280;29744;49.078;12.878;2023-05-10T04:49:39;95789.50;;;15.31;39.96
44079;BME280;29744;49.078;12.878;2023-05-10T04:54:39;95794.91;;;15.31;39.97
44079;BME280;29744;49.078;12.878;2023-05-10T04:59:39;95789.50;;;15.31;39.90
44079;BME280;29744;49.078;12.878;2023-05-10T05:04:40;95797.59;;;15.31;39.75
44079;BME280;29744;49.078;12.878;2023-05-10T05:09:40;95809.19;;;15.31;40.07
44079;BME280;29744;49.078;12.878;2023-05-10T05:14:40;95804.56;;;15.32;39.63
44079;BME280;29744;49.078;12.878;2023-05-10T05:19:41;95804.91;;;15.30;39.72
44079;BME280;29744;49.078;12.878;2023-05-10T05:24:41;95807.63;;;15.30;39.98
44079;BME280;29744;49.078;12.878;2023-05-10T05:29:41;95805.16;;;15.25;39.81
44079;BME280;29744;49.078;12.878;2023-05-10T05:34:44;95817.28;;;15.31;39.88
44079;BME280;29744;49.078;12.878;2023-05-10T05:39:44;95819.22;;;15.31;40.15
44079;BME280;29744;49.078;12.878;2023-05-10T05:44:45;95824.63;;;15.31;39.59
44079;BME280;29744;49.078;12.878;2023-05-10T05:49:45;95823.84;;;15.30;39.96
44079;BME280;29744;49.078;12.878;2023-05-10T05:54:45;95829.22;;;15.30;40.24
44079;BME280;29744;49.078;12.878;2023-05-10T05:59:46;95835.44;;;15.31;39.78
44079;BME280;29744;49.078;12.878;2023-05-10T06:04:46;95840.03;;;15.30;39.88
44079;BME280;29744;49.078;12.878;2023-05-10T06:09:46;95845.44;;;15.30;40.22
44079;BME280;29744;49.078;12.878;2023-05-10T06:14:47;95868.63;;;15.31;39.61
44079;BME280;29744;49.078;12.878;2023-05-10T06:19:47;95869.75;;;15.30;39.86
44079;BME280;29744;49.078;12.878;2023-05-10T06:24:48;95876.28;;;15.29;39.88
44079;BME280;29744;49.078;12.878;2023-05-10T06:29:48;95882.47;;;15.30;39.55
44079;BME280;29744;49.078;12.878;2023-05-10T06:34:49;95886.75;;;15.31;39.54
44079;BME280;29744;49.078;12.878;2023-05-10T06:39:49;95880.91;;;15.29;40.11
44079;BME280;29744;49.078;12.878;2023-05-10T06:44:49;95891.03;;;15.32;40.08
44079;BME280;29744;49.078;12.878;2023-05-10T06:49:49;95891.03;;;15.32;39.74
44079;BME280;29744;49.078;12.878;2023-05-10T06:54:50;95895.66;;;15.31;39.72
44079;BME280;29744;49.078;12.878;2023-05-10T06:59:50;95896.44;;;15.32;40.08
44079;BME280;29744;49.078;12.878;2023-05-10T07:04:51;95906.44;;;15.31;39.71
44079;BME280;29744;49.078;12.878;2023-05-10T07:09:52;95905.31;;;15.32;39.69
44079;BME280;29744;49.078;12.878;2023-05-10T07:14:52;95909.16;;;15.31;39.98
44079;BME280;29744;49.078;12.878;2023-05-10T07:19:53;95917.25;;;15.31;39.81
44079;BME280;29744;49.078;12.878;2023-05-10T07:24:53;95908.38;;;15.31;39.90
44079;BME280;29744;49.078;12.878;2023-05-10T07:29:53;95911.84;;;15.31;39.85
44079;BME280;29744;49.078;12.878;2023-05-10T07:34:54;95925.34;;;15.31;39.88
44079;BME280;29744;49.078;12.878;2023-05-10T07:39:55;95927.28;;;15.31;39.67
44079;BME280;29744;49.078;12.878;2023-05-10T07:44:56;95928.06;;;15.31;39.56
44079;BME280;29744;49.078;12.878;2023-05-10T07:49:56;95933.47;;;15.31;39.70
44079;BME280;29744;49.078;12.878;2023-05-10T07:54:56;95945.06;;;15.32;39.94
44079;BME280;29744;49.078;12.878;2023-05-10T07:59:57;95943.16;;;15.32;39.50
44079;BME280;29744;49.078;12.878;2023-05-10T08:04:57;95938.53;;;15.33;39.61
44079;BME280;29744;49.078;12.878;2023-05-10T08:09:57;95943.16;;;15.32;39.91
44079;BME280;29744;49.078;12.878;2023-05-10T08:14:58;95957.09;;;15.34;40.13
44079;BME280;29744;49.078;12.878;2023-05-10T08:19:58;95970.94;;;15.33;39.76
44079;BME280;29744;49.078;12.878;2023-05-10T08:24:58;95959.81;;;15.34;39.46
44079;BME280;29744;49.078;12.878;2023-05-10T08:29:58;95965.22;;;15.34;39.50
44079;BME280;29744;49.078;12.878;2023-05-10T08:34:59;95977.59;;;15.35;39.92
44079;BME280;29744;49.078;12.878;2023-05-10T08:39:59;95971.41;;;15.35;39.74
44079;BME280;29744;49.078;12.878;2023-05-10T08:45:00;95980.28;;;15.35;39.93
44079;BME280;29744;49.078;12.878;2023-05-10T08:50:02;95979.94;;;15.37;39.86
44079;BME280;29744;49.078;12.878;2023-05-10T08:55:03;95984.56;;;15.36;40.06
44079;BME280;29744;49.078;12.878;2023-05-10T09:00:04;95989.97;;;15.36;39.80
44079;BME280;29744;49.078;12.878;2023-05-10T09:05:05;95991.53;;;15.37;39.66
44079;BME280;29744;49.078;12.878;2023-05-10T09:10:06;95991.53;;;15.37;39.66
44079;BME280;29744;49.078;12.878;2023-05-10T09:15:09;95997.41;;;15.39;39.72
44079;BME280;29744;49.078;12.878;2023-05-10T09:20:09;96005.50;;;15.39;39.53
44079;BME280;29744;49.078;12.878;2023-05-10T09:25:12;96001.34;;;15.42;39.65
44079;BME280;29744;49.078;12.878;2023-05-10T09:30:23;96009.44;;;15.42;39.66
44079;BME280;29744;49.078;12.878;2023-05-10T09:35:25;96017.22;;;15.43;39.38
44079;BME280;29744;49.078;12.878;2023-05-10T09:40:27;96017.22;;;15.43;39.43
44079;BME280;29744;49.078;12.878;2023-05-10T09:45:30;96013.72;;;15.43;39.88
44079;BME280;29744;49.078;12.878;2023-05-10T09:50:30;96010.22;;;15.42;39.45
44079;BME280;29744;49.078;12.878;2023-05-10T09:55:44;96014.06;;;15.41;39.39
44079;BME280;29744;49.078;12.878;2023-05-10T10:00:46;96007.97;;;15.44;39.74
44079;BME280;29744;49.078;12.878;2023-05-10T10:05:48;96004.16;;;15.45;39.60
44079;BME280;29744;49.078;12.878;2023-05-10T10:10:48;96015.75;;;15.46;39.85
44079;BME280;29744;49.078;12.878;2023-05-10T10:15:49;96006.50;;;15.47;39.71
44079;BME280;29744;49.078;12.878;2023-05-10T10:20:51;96007.28;;;15.48;39.59
44079;BME280;29744;49.078;12.878;2023-05-10T10:25:53;96001.88;;;15.48;39.58
44079;BME280;29744;49.078;12.878;2023-05-10T10:30:55;96006.16;;;15.49;39.67
44079;BME280;29744;49.078;12.878;2023-05-10T10:35:58;96003.47;;;15.49;39.28
44079;BME280;29744;49.078;12.878;2023-05-10T10:41:08;96005.03;;;15.50;39.27
44079;BME280;29744;49.078;12.878;2023-05-10T10:46:16;96006.16;;;15.49;39.65
44079;BME280;29744;49.078;12.878;2023-05-10T10:51:17;96001.56;;;15.49;39.36
44079;BME280;29744;49.078;12.878;2023-05-10T10:56:21;96006.63;;;15.51;39.74
44079;BME280;29744;49.078;12.878;2023-05-10T11:01:23;96001.22;;;15.51;39.62
44079;BME280;29744;49.078;12.878;2023-05-10T11:06:31;95994.69;;;15.52;39.68
44079;BME280;29744;49.078;12.878;2023-05-10T11:11:31;96002.44;;;15.53;39.74
44079;BME280;29744;49.078;12.878;2023-05-10T11:16:42;95992.75;;;15.52;39.17
44079;BME280;29744;49.078;12.878;2023-05-10T11:21:50;95990.50;;;15.54;39.47
44079;BME280;29744;49.078;12.878;2023-05-10T11:26:51;95995.56;;;15.56;39.46
44079;BME280;29744;49.078;12.878;2023-05-10T11:31:52;95994.00;;;15.55;39.60
44079;BME280;29744;49.078;12.878;2023-05-10T11:36:54;96003.69;;;15.56;39.46
44079;BME280;29744;49.078;12.878;2023-05-10T11:41:54;95996.69;;;15.55;39.56
44079;BME280;29744;49.078;12.878;2023-05-10T11:46:58;95994.44;;;15.57;39.38
44079;BME280;29744;49.078;12.878;2023-05-10T11:52:06;95990.97;;;15.56;39.22
44079;BME280;29744;49.078;12.878;2023-05-10T11:57:06;95993.66;;;15.56;39.55
44079;BME280;29744;49.078;12.878;2023-05-10T12:02:07;96007.97;;;15.57;39.48
44079;BME280;29744;49.078;12.878;2023-05-10T12:07:07;96003.34;;;15.57;39.43
44079;BME280;29744;49.078;12.878;2023-05-10T12:12:08;96000.97;;;15.56;39.17
44079;BME280;29744;49.078;12.878;2023-05-10T12:17:11;96006.84;;;15.58;39.17
44079;BME280;29744;49.078;12.878;2023-05-10T12:22:12;96010.66;;;15.57;39.29
44079;BME280;29744;49.078;12.878;2023-05-10T12:27:12;96009.88;;;15.56;39.23
44079;BME280;29744;49.078;12.878;2023-05-10T12:32:13;96005.25;;;15.57;39.61
44079;BME280;29744;49.078;12.878;2023-05-10T12:37:13;96001.44;;;15.58;39.50
44079;BME280;29744;49.078;12.878;2023-05-10T12:42:14;96002.22;;;15.58;39.55
44079;BME280;29744;49.078;12.878;2023-05-10T12:47:14;96004.13;;;15.58;39.50
44079;BME280;29744;49.078;12.878;2023-05-10T12:52:14;96006.50;;;15.59;39.23
44079;BME280;29744;49.078;12.878;2023-05-10T12:57:14;96005.38;;;15.60;39.55
44079;BME280;29744;49.078;12.878;2023-05-10T13:02:15;96004.91;;;15.58;39.55
44079;BME280;29744;49.078;12.878;2023-05-10T13:07:17;96001.09;;;15.59;39.78
44079;BME280;29744;49.078;12.878;2023-05-10T13:12:18;96001.09;;;15.59;39.36
44079;BME280;29744;49.078;12.878;2023-05-10T13:17:18;95997.59;;;15.59;39.35
44079;BME280;29744;49.078;12.878;2023-05-10T13:22:18;95995.34;;;15.61;39.63
44079;BME280;29744;49.078;12.878;2023-05-10T13:27:18;95988.00;;;15.61;39.74
44079;BME280;29744;49.078;12.878;2023-05-10T13:32:19;95990.38;;;15.63;39.39
44079;BME280;29744;49.078;12.878;2023-05-10T13:37:20;95985.75;;;15.63;39.74
44079;BME280;29744;49.078;12.878;2023-05-10T13:42:22;95980.00;;;15.65;39.25
44079;BME280;29744;49.078;12.878;2023-05-10T13:47:23;95976.19;;;15.66;39.18
44079;BME280;29744;49.078;12.878;2023-05-10T13:52:23;95979.66;;;15.66;39.32
44079;BME280;29744;49.078;12.878;2023-05-10T13:57:23;95976.97;;;15.66;39.43
44079;BME280;29744;49.078;12.878;2023-05-10T14:02:24;95973.94;;;15.68;39.26
44079;BME280;29744;49.078;12.878;2023-05-10T14:07:24;95972.34;;;15.67;39.40
44079;BME280;29744;49.078;12.878;2023-05-10T14:12:24;95977.75;;;15.67;39.57
44079;BME280;29744;49.078;12.878;2023-05-10T14:17:25;95970.78;;;15.66;39.32
44079;BME280;29744;49.078;12.878;2023-05-10T14:22:25;95969.66;;;15.67;39.65
44079;BME280;29744;49.078;12.878;2023-05-10T14:27:25;95971.91;;;15.65;39.68
44079;BME280;29744;49.078;12.878;2023-05-10T14:32:26;95970.31;;;15.64;39.52
44079;BME280;29744;49.078;12.878;2023-05-10T14:37:27;95970.66;;;15.62;39.60
44079;BME280;29744;49.078;12.878;2023-05-10T14:42:27;95969.88;;;15.62;39.48
44079;BME280;29744;49.078;12.878;2023-05-10T14:47:28;95963.69;;;15.61;39.45
44079;BME280;29744;49.078;12.878;2023-05-10T14:52:29;95964.47;;;15.62;39.48
44079;BME280;29744;49.078;12.878;2023-05-10T14:57:29;95969.88;;;15.62;39.21
44079;BME280;29744;49.078;12.878;2023-05-10T15:02:30;95976.88;;;15.63;39.73
44079;BME280;29744;49.078;12.878;2023-05-10T15:07:31;95971.81;;;15.61;39.70
44079;BME280;29744;49.078;12.878;2023-05-10T15:12:31;95969.88;;;15.62;39.46
44079;BME280;29744;49.078;12.878;2023-05-10T15:17:32;95973.72;;;15.61;39.50
44079;BME280;29744;49.078;12.878;2023-05-10T15:22:32;95977.22;;;15.61;39.33
44079;BME280;29744;49.078;12.878;2023-05-10T15:27:32;95972.59;;;15.62;39.45
44079;BME280;29744;49.078;12.878;2023-05-10T15:32:33;95971.00;;;15.61;39.49
44079;BME280;29744;49.078;12.878;2023-05-10T15:37:33;95976.41;;;15.61;39.62
44079;BME280;29744;49.078;12.878;2023-05-10T15:42:33;95974.50;;;15.61;39.62
44079;BME280;29744;49.078;12.878;2023-05-10T15:47:34;95974.50;;;15.61;39.68
44079;BME280;29744;49.078;12.878;2023-05-10T15:52:34;95971.34;;;15.59;39.50
44079;BME280;29744;49.078;12.878;2023-05-10T15:57:35;95973.72;;;15.61;39.61
44079;BME280;29744;49.078;12.878;2023-05-10T16:02:36;95979.91;;;15.61;39.66
44079;BME280;29744;49.078;12.878;2023-05-10T16:07:36;95981.81;;;15.61;39.55
44079;BME280;29744;49.078;12.878;2023-05-10T16:12:37;95982.63;;;15.61;39.72
44079;BME280;29744;49.078;12.878;2023-05-10T16:17:37;95984.53;;;15.61;39.63
44079;BME280;29744;49.078;12.878;2023-05-10T16:22:38;95986.78;;;15.59;39.27
44079;BME280;29744;49.078;12.878;2023-05-10T16:27:38;95986.78;;;15.59;39.83
44079;BME280;29744;49.078;12.878;2023-05-10T16:32:38;95983.63;;;15.57;39.42
44079;BME280;29744;49.078;12.878;2023-05-10T16:37:38;95992.53;;;15.57;39.59
44079;BME280;29744;49.078;12.878;2023-05-10T16:42:39;95990.97;;;15.56;39.50
44079;BME280;29744;49.078;12.878;2023-05-10T16:47:39;95996.38;;;15.56;39.55
44079;BME280;29744;49.078;12.878;2023-05-10T16:52:39;95989.38;;;15.55;39.75
44079;BME280;29744;49.078;12.878;2023-05-10T16:57:40;95997.81;;;15.54;39.88
44079;BME280;29744;49.078;12.878;2023-05-10T17:02:40;96001.31;;;15.54;39.62
44079;BME280;29744;49.078;12.878;2023-05-10T17:07:40;96007.06;;;15.53;39.36
44079;BME280;29744;49.078;12.878;2023-05-10T17:12:42;96011.56;;;15.49;39.42
44079;BME280;29744;49.078;12.878;2023-05-10T17:17:42;96020.13;;;15.51;39.73
44079;BME280;29744;49.078;12.878;2023-05-10T17:22:42;96024.75;;;15.50;39.77
44079;BME280;29744;49.078;12.878;2023-05-10T17:27:42;96029.38;;;15.50;39.74
44079;BME280;29744;49.078;12.878;2023-05-10T17:32:43;96035.09;;;15.48;39.79
44079;BME280;29744;49.078;12.878;2023-05-10T17:37:43;96037.81;;;15.48;39.97
44079;BME280;29744;49.078;12.878;2023-05-10T17:42:44;96030.81;;;15.47;39.68
44079;BME280;29744;49.078;12.878;2023-05-10T17:47:44;96040.84;;;15.46;39.80
44079;BME280;29744;49.078;12.878;2023-05-10T17:52:44;96048.16;;;15.46;40.02
44079;BME280;29744;49.078;12.878;2023-05-10T17:57:45;96044.69;;;15.45;39.51
44079;BME280;29744;49.078;12.878;2023-05-10T18:02:45;96048.50;;;15.44;39.37
44079;BME280;29744;49.078;12.878;2023-05-10T18:07:46;96051.22;;;15.44;40.02
44079;BME280;29744;49.078;12.878;2023-05-10T18:12:46;96054.25;;;15.43;40.12
44079;BME280;29744;49.078;12.878;2023-05-10T18:17:48;96060.44;;;15.43;39.96
44079;BME280;29744;49.078;12.878;2023-05-10T18:22:48;96058.88;;;15.42;39.80
44079;BME280;29744;49.078;12.878;2023-05-10T18:27:48;96068.09;;;15.41;39.80
44079;BME280;29744;49.078;12.878;2023-05-10T18:32:49;96068.09;;;15.41;39.58
44079;BME280;29744;49.078;12.878;2023-05-10T18:37:49;96060.00;;;15.41;39.85
44079;BME280;29744;49.078;12.878;2023-05-10T18:42:49;96066.53;;;15.40;39.54
44079;BME280;29744;49.078;12.878;2023-05-10T18:47:50;96070.34;;;15.39;40.07
44079;BME280;29744;49.078;12.878;2023-05-10T18:52:50;96074.97;;;15.39;39.58
44079;BME280;29744;49.078;12.878;2023-05-10T18:57:50;96081.16;;;15.39;40.01
44079;BME280;29744;49.078;12.878;2023-05-10T19:02:51;96093.09;;;15.38;39.72
44079;BME280;29744;49.078;12.878;2023-05-10T19:07:52;96096.59;;;15.39;39.74
44079;BME280;29744;49.078;12.878;2023-05-10T19:12:52;96096.59;;;15.39;40.12
44079;BME280;29744;49.078;12.878;2023-05-10T19:17:53;96093.09;;;15.38;39.77
44079;BME280;29744;49.078;12.878;2023-05-10T19:22:53;96096.91;;;15.37;39.96
44079;BME280;29744;49.078;12.878;2023-05-10T19:27:57;96100.41;;;15.38;39.71
44079;BME280;29744;49.078;12.878;2023-05-10T19:32:57;96101.53;;;15.37;39.94
44079;BME280;29744;49.078;12.878;2023-05-10T19:37:57;96105.03;;;15.37;39.86
44079;BME280;29744;49.078;12.878;2023-05-10T19:42:58;96100.75;;;15.36;39.98
44079;BME280;29744;49.078;12.878;2023-05-10T19:47:59;96103.44;;;15.36;39.66
44079;BME280;29744;49.078;12.878;2023-05-10T19:53:00;96095.69;;;15.35;40.02
44079;BME280;29744;49.078;12.878;2023-05-10T19:58:01;96100.75;;;15.36;40.12
44079;BME280;29744;49.078;12.878;2023-05-10T20:03:02;96107.28;;;15.35;40.28
44079;BME280;29744;49.078;12.878;2023-05-10T20:08:04;96105.38;;;15.36;39.66
44079;BME280;29744;49.078;12.878;2023-05-10T20:13:04;96103.78;;;15.35;39.94
44079;BME280;29744;49.078;12.878;2023-05-10T20:18:05;96106.50;;;15.35;40.02
44079;BME280;29744;49.078;12.878;2023-05-10T20:23:05;96106.50;;;15.35;40.19
44079;BME280;29744;49.078;12.878;2023-05-10T20:28:05;96104.91;;;15.34;39.88
44079;BME280;29744;49.078;12.878;2023-05-10T20:33:07;96111.09;;;15.34;40.20
44079;BME280;29744;49.078;12.878;2023-05-10T20:38:08;96104.13;;;15.33;39.76
44079;BME280;29744;49.078;12.878;2023-05-10T20:43:08;96102.22;;;15.34;39.74
44079;BME280;29744;49.078;12.878;2023-05-10T20:48:08;96112.22;;;15.33;40.30
44079;BME280;29744;49.078;12.878;2023-05-10T20:53:09;96109.53;;;15.33;39.87
44079;BME280;29744;49.078;12.878;2023-05-10T20:58:09;96113.00;;;15.34;40.30
44079;BME280;29744;49.078;12.878;2023-05-10T21:03:09;96105.25;;;15.32;39.90
44079;BME280;29744;49.078;12.878;2023-05-10T21:08:10;96102.53;;;15.32;39.77
44079;BME280;29744;49.078;12.878;2023-05-10T21:13:10;96105.25;;;15.32;39.91
44079;BME280;29744;49.078;12.878;2023-05-10T21:18:10;96099.84;;;15.32;39.81
44079;BME280;29744;49.078;12.878;2023-05-10T21:23:10;96103.66;;;15.31;40.03
44079;BME280;29744;49.078;12.878;2023-05-10T21:28:11;96105.25;;;15.32;39.76
44079;BME280;29744;49.078;12.878;2023-05-10T21:33:11;96111.78;;;15.31;39.99
44079;BME280;29744;49.078;12.878;2023-05-10T21:38:12;96100.97;;;15.31;40.18
44079;BME280;29744;49.078;12.878;2023-05-10T21:43:12;96098.25;;;15.31;40.22
44079;BME280;29744;49.078;12.878;2023-05-10T21:48:12;96098.25;;;15.31;39.99
44079;BME280;29744;49.078;12.878;2023-05-10T21:53:12;96102.88;;;15.31;39.90
44079;BME280;29744;49.078;12.878;2023-05-10T21:58:13;96100.19;;;15.31;39.97
44079;BME280;29744;49.078;12.878;2023-05-10T22:03:13;96104.78;;;15.30;39.83
44079;BME280;29744;49.078;12.878;2023-05-10T22:08:13;96102.09;;;15.30;40.03
44079;BME280;29744;49.078;12.878;2023-05-10T22:13:13;96102.09;;;15.30;40.19
44079;BME280;29744;49.078;12.878;2023-05-10T22:18:14;96104.78;;;15.30;40.19
44079;BME280;29744;49.078;12.878;2023-05-10T22:23:14;96101.31;;;15.30;40.10
44079;BME280;29744;49.078;12.878;2023-05-10T22:28:15;96110.19;;;15.30;40.10
44079;BME280;29744;49.078;12.878;2023-05-10T22:33:15;96103.22;;;15.29;39.86
44079;BME280;29744;49.078;12.878;2023-05-10T22:38:15;96103.22;;;15.29;40.00
44079;BME280;29744;49.078;12.878;2023-05-10T22:43:16;96102.44;;;15.29;40.02
44079;BME280;29744;49.078;12.878;2023-05-10T22:48:17;96103.22;;;15.29;40.03
44079;BME280;29744;49.078;12.878;2023-05-10T22:53:17;96104.34;;;15.28;39.88
44079;BME280;29744;49.078;12.878;2023-05-10T22:58:17;96108.97;;;15.28;39.72
44079;BME280;29744;49.078;12.878;2023-05-10T23:03:18;96103.56;;;15.28;39.96
44079;BME280;29744;49.078;12.878;2023-05-10T23:08:18;96112.44;;;15.28;40.27
44079;BME280;29744;49.078;12.878;2023-05-10T23:13:18;96108.63;;;15.29;40.31
44079;BME280;29744;49.078;12.878;2023-05-10T23:18:20;96109.75;;;15.28;40.24
44079;BME280;29744;49.078;12.878;2023-05-10T23:23:21;96106.25;;;15.28;39.94
44079;BME280;29744;49.078;12.878;2023-05-10T23:28:21;96112.78;;;15.27;40.13
44079;BME280;29744;49.078;12.878;2023-05-10T23:33:22;96111.66;;;15.28;40.00
44079;BME280;29744;49.078;12.878;2023-05-10T23:38:22;96108.16;;;15.27;40.10
44079;BME280;29744;49.078;12.878;2023-05-10T23:43:22;96109.75;;;15.28;40.09
44079;BME280;29744;49.078;12.878;2023-05-10T23:48:24;96104.69;;;15.27;39.99
44079;BME280;29744;49.078;12.878;2023-05-10T23:53:24;96098.47;;;15.26;40.05
44079;BME280;29744;49.078;12.878;2023-05-10T23:58:25;96098.47;;;15.26;40.23
